TimeMDT,TemperatureF,Dew PointF,Humidity,Sea Level PressureIn,VisibilityMPH,Wind Direction,Wind SpeedMPH,Gust SpeedMPH,PrecipitationIn,Events,Conditions,WindDirDegrees,DateUTC
12:15 AM,51.8,19.4,28,30.05,10.0,SSE,4.6,-,N/A,,Clear,160,2012-03-26 06:15:00
12:35 AM,50.0,17.6,28,30.05,10.0,SSE,3.5,-,N/A,,Clear,160,2012-03-26 06:35:00
12:55 AM,48.2,19.4,32,30.05,10.0,Calm,Calm,-,N/A,,Clear,0,2012-03-26 06:55:00
1:15 AM,50.0,19.4,30,30.04,10.0,North,4.6,-,N/A,,Clear,360,2012-03-26 07:15:00
1:35 AM,46.4,19.4,34,30.04,10.0,NNW,9.2,-,N/A,,Clear,340,2012-03-26 07:35:00
1:55 AM,44.6,19.4,37,30.04,10.0,NW,8.1,-,N/A,,Clear,320,2012-03-26 07:55:00
2:15 AM,42.8,19.4,39,30.03,10.0,NNW,3.5,-,N/A,,Clear,330,2012-03-26 08:15:00
2:35 AM,42.8,19.4,39,30.03,10.0,West,4.6,-,N/A,,Clear,280,2012-03-26 08:35:00
2:55 AM,42.8,19.4,39,30.03,10.0,NNE,5.8,-,N/A,,Clear,20,2012-03-26 08:55:00
3:15 AM,39.2,19.4,45,30.02,10.0,NNE,5.8,-,N/A,,Clear,30,2012-03-26 09:15:00
3:35 AM,39.2,19.4,45,30.02,10.0,West,3.5,-,N/A,,Clear,260,2012-03-26 09:35:00
3:55 AM,42.8,19.4,39,29.99,10.0,NNW,8.1,-,N/A,,Clear,340,2012-03-26 09:55:00
4:15 AM,44.6,19.4,37,29.97,10.0,North,9.2,16.1,N/A,,Clear,360,2012-03-26 10:15:00
4:35 AM,39.2,19.4,45,29.98,10.0,NNE,4.6,-,N/A,,Clear,20,2012-03-26 10:35:00
4:55 AM,48.2,19.4,32,30.00,10.0,ESE,11.5,-,N/A,,Clear,110,2012-03-26 10:55:00
5:15 AM,44.6,17.6,34,29.99,10.0,ENE,11.5,17.3,N/A,,Clear,70,2012-03-26 11:15:00
5:35 AM,46.4,17.6,32,29.99,10.0,East,5.8,-,N/A,,Clear,90,2012-03-26 11:35:00
5:55 AM,46.4,17.6,32,29.99,10.0,WSW,3.5,-,N/A,,Clear,250,2012-03-26 11:55:00
6:15 AM,44.6,15.8,31,29.99,10.0,Calm,Calm,-,N/A,,Clear,0,2012-03-26 12:15:00
6:35 AM,44.6,15.8,31,30.00,10.0,North,4.6,-,N/A,,Clear,350,2012-03-26 12:35:00
6:55 AM,42.8,17.6,36,30.00,10.0,North,5.8,-,N/A,,Clear,360,2012-03-26 12:55:00
7:15 AM,39.2,17.6,42,30.01,10.0,NW,8.1,-,N/A,,Clear,320,2012-03-26 13:15:00
7:35 AM,39.2,17.6,42,30.00,10.0,NNE,5.8,-,N/A,,Clear,30,2012-03-26 13:35:00
7:55 AM,37.4,17.6,45,29.99,10.0,NE,5.8,-,N/A,,Clear,40,2012-03-26 13:55:00
8:15 AM,39.2,15.8,39,29.99,10.0,North,9.2,-,N/A,,Clear,360,2012-03-26 14:15:00
8:35 AM,44.6,17.6,34,29.98,10.0,NNW,12.7,-,N/A,,Clear,330,2012-03-26 14:35:00
8:55 AM,48.2,15.8,27,29.98,10.0,ENE,3.5,-,N/A,,Clear,70,2012-03-26 14:55:00
9:15 AM,53.6,10.4,18,29.96,10.0,Calm,Calm,-,N/A,,Clear,0,2012-03-26 15:15:00
9:35 AM,55.4,12.2,18,29.96,10.0,WSW,8.1,-,N/A,,Clear,250,2012-03-26 15:35:00
9:55 AM,57.2,8.6,14,29.95,10.0,SSW,15.0,24.2,N/A,,Clear,210,2012-03-26 15:55:00
10:15 AM,57.2,6.8,13,29.94,10.0,South,23.0,33.4,N/A,,Clear,190,2012-03-26 16:15:00
10:35 AM,57.2,6.8,13,29.94,10.0,SSW,21.9,33.4,N/A,,Clear,210,2012-03-26 16:35:00
10:55 AM,57.2,5.0,12,29.93,10.0,SSW,25.3,39.1,N/A,,Clear,200,2012-03-26 16:55:00
11:15 AM,57.2,5.0,12,29.91,10.0,SSW,23.0,44.9,N/A,,Clear,200,2012-03-26 17:15:00
11:35 AM,57.2,6.8,13,29.90,10.0,SSW,26.5,40.3,N/A,,Clear,200,2012-03-26 17:35:00
11:55 AM,57.2,6.8,13,29.91,10.0,SSW,25.3,39.1,N/A,,Clear,200,2012-03-26 17:55:00
12:15 PM,57.2,6.8,13,29.91,10.0,SW,25.3,39.1,N/A,,Clear,220,2012-03-26 18:15:00
12:35 PM,59.0,6.8,13,29.90,10.0,South,27.6,36.8,N/A,,Clear,190,2012-03-26 18:35:00
12:55 PM,59.0,6.8,13,29.90,10.0,SSW,23.0,39.1,N/A,,Clear,210,2012-03-26 18:55:00
1:15 PM,59.0,6.8,13,29.91,10.0,SW,21.9,39.1,N/A,,Partly Cloudy,220,2012-03-26 19:15:00
1:35 PM,59.0,6.8,13,29.90,10.0,WSW,19.6,39.1,N/A,,Partly Cloudy,240,2012-03-26 19:35:00
1:55 PM,59.0,6.8,13,29.89,10.0,WSW,18.4,33.4,N/A,,Clear,240,2012-03-26 19:55:00
2:15 PM,57.2,8.6,14,29.89,10.0,SW,15.0,28.8,N/A,,Partly Cloudy,230,2012-03-26 20:15:00
2:35 PM,59.0,12.2,16,29.89,10.0,WSW,17.3,24.2,N/A,,Partly Cloudy,240,2012-03-26 20:35:00
2:55 PM,59.0,6.8,13,29.89,10.0,West,15.0,29.9,N/A,,Clear,270,2012-03-26 20:55:00
3:15 PM,57.2,8.6,14,29.89,10.0,West,17.3,29.9,N/A,,Clear,280,2012-03-26 21:15:00
3:35 PM,57.2,12.2,17,29.89,10.0,West,23.0,28.8,N/A,,Clear,270,2012-03-26 21:35:00
3:55 PM,57.2,12.2,17,29.90,10.0,West,17.3,31.1,N/A,,Clear,270,2012-03-26 21:55:00
4:15 PM,57.2,10.4,16,29.91,10.0,West,18.4,28.8,N/A,,Clear,270,2012-03-26 22:15:00
4:35 PM,55.4,10.4,17,29.91,10.0,West,24.2,32.2,N/A,,Clear,260,2012-03-26 22:35:00
4:55 PM,53.6,8.6,16,29.91,10.0,WSW,15.0,23.0,N/A,,Clear,250,2012-03-26 22:55:00
5:15 PM,53.6,8.6,16,29.92,10.0,West,13.8,20.7,N/A,,Clear,260,2012-03-26 23:15:00
5:35 PM,53.6,10.4,18,29.93,10.0,West,12.7,20.7,N/A,,Clear,260,2012-03-26 23:35:00
5:55 PM,51.8,10.4,19,29.94,10.0,WSW,17.3,27.6,N/A,,Clear,250,2012-03-26 23:55:00
6:15 PM,51.8,10.4,19,29.94,10.0,SW,20.7,27.6,N/A,,Clear,230,2012-03-27 00:15:00
6:35 PM,50.0,10.4,20,29.95,10.0,West,16.1,20.7,N/A,,Clear,260,2012-03-27 00:35:00
6:55 PM,50.0,8.6,19,29.95,10.0,WSW,19.6,26.5,N/A,,Clear,250,2012-03-27 00:55:00
7:15 PM,48.2,8.6,20,29.96,10.0,WSW,19.6,27.6,N/A,,Clear,250,2012-03-27 01:15:00
7:35 PM,48.2,8.6,20,29.97,10.0,West,15.0,24.2,N/A,,Clear,260,2012-03-27 01:35:00
7:55 PM,48.2,8.6,20,30.00,10.0,West,15.0,19.6,N/A,,Clear,280,2012-03-27 01:55:00
8:15 PM,46.4,10.4,23,30.02,10.0,NW,8.1,-,N/A,,Clear,310,2012-03-27 02:15:00
8:35 PM,46.4,10.4,23,30.03,10.0,WNW,6.9,-,N/A,,Clear,300,2012-03-27 02:35:00
8:55 PM,44.6,10.4,25,30.04,10.0,Calm,Calm,-,N/A,,Clear,0,2012-03-27 02:55:00
9:15 PM,44.6,8.6,23,30.05,10.0,North,3.5,-,N/A,,Clear,360,2012-03-27 03:15:00
9:35 PM,42.8,10.4,27,30.06,10.0,ENE,9.2,-,N/A,,Clear,60,2012-03-27 03:35:00
9:55 PM,39.2,10.4,31,30.07,10.0,NNE,6.9,-,N/A,,Clear,30,2012-03-27 03:55:00
10:15 PM,41.0,10.4,29,30.08,10.0,East,6.9,-,N/A,,Clear,80,2012-03-27 04:15:00
10:35 PM,39.2,10.4,31,30.09,10.0,Calm,Calm,-,N/A,,Clear,0,2012-03-27 04:35:00
10:55 PM,37.4,10.4,33,30.09,10.0,North,3.5,-,N/A,,Clear,10,2012-03-27 04:55:00
11:15 PM,35.6,10.4,35,30.10,10.0,Calm,Calm,-,N/A,,Clear,0,2012-03-27 05:15:00
11:35 PM,33.8,12.2,41,30.10,10.0,North,4.6,-,N/A,,Clear,360,2012-03-27 05:35:00
11:55 PM,30.2,8.6,40,30.10,10.0,NNE,4.6,-,N/A,,Clear,20,2012-03-27 05:55:00